Time;durP1;ratioP1;P1;durP2;ratioP2;P2;SDS_P1;SDS_P2;PMS_P1;PMS_P2;Temp;Humidity;BMP_temperature;BMP_pressure;BME280_temperature;BME280_humidity;BME280_pressure;Samples;Min_cycle;Max_cycle;Signal;HPM_P1;HPM_P2
2021/11/12 00:13:20;;;;;;;49.30;19.13;;;;;;;-139.48;100.00;61774.03;4976624;28;20181;-71
2021/11/12 00:16:05;;;;;;;44.67;18.75;;;;;;;-139.48;100.00;61774.03;4976900;28;20057;-71
2021/11/12 00:18:49;;;;;;;41.63;19.17;;;;;;;-139.48;100.00;61774.03;4976506;28;20047;-71
2021/11/12 00:21:33;;;;;;;41.78;19.00;;;;;;;-139.48;100.00;61774.03;4975839;28;20049;-71
2021/11/12 00:24:17;;;;;;;45.72;19.80;;;;;;;-139.48;100.00;61774.03;4976453;28;20523;-71
2021/11/12 00:27:04;;;;;;;61.17;19.45;;;;;;;-139.48;100.00;61774.03;4977584;28;20053;-71
2021/11/12 00:29:58;;;;;;;66.90;19.25;;;;;;;-139.48;100.00;61774.03;4976248;28;20054;-71
2021/11/12 00:33:06;;;;;;;50.22;21.00;;;;;;;-139.48;100.00;61774.03;4964060;28;20069;-71
2021/11/12 00:36:00;;;;;;;44.58;19.13;;;;;;;-139.48;100.00;61774.03;4976752;28;20178;-71
2021/11/12 00:39:11;;;;;;;71.47;21.83;;;;;;;-139.48;100.00;61774.03;4976254;28;20113;-71
2021/11/12 00:42:06;;;;;;;67.50;21.77;;;;;;;-139.48;100.00;61774.03;4976691;28;20081;-71
2021/11/12 00:45:00;;;;;;;65.45;22.33;;;;;;;-139.48;100.00;61774.03;4975899;28;20074;-71
2021/11/12 00:56:02;;;;;;;;;;;;;;;-139.48;100.00;61774.03;4976461;28;20483;-71
2021/11/12 00:58:46;;;;;;;58.33;23.20;;;;;;;-139.48;100.00;61774.03;4977122;28;19921;-71
2021/11/12 01:01:31;;;;;;;57.85;24.27;;;;;;;-139.48;100.00;61774.03;4962251;28;20093;-71
2021/11/12 01:04:19;;;;;;;59.50;24.85;;;;;;;-139.48;100.00;61774.03;4976407;28;20509;-71
2021/11/12 01:07:04;;;;;;;65.70;24.58;;;;;;;-139.48;100.00;61774.03;4975354;28;20113;-71
2021/11/12 01:09:47;;;;;;;61.22;25.33;;;;;;;-139.48;100.00;61774.03;4976642;28;20085;-72
2021/11/12 01:12:31;;;;;;;63.15;25.95;;;;;;;-139.48;100.00;61774.03;4975548;28;20058;-71
2021/11/12 01:15:19;;;;;;;70.97;26.30;;;;;;;-139.48;100.00;61774.03;4962038;28;20053;-71
2021/11/12 01:18:03;;;;;;;63.92;26.02;;;;;;;-139.48;100.00;61774.03;4975542;28;20420;-71
2021/11/12 01:20:48;;;;;;;58.30;24.08;;;;;;;-139.48;100.00;61774.03;4975475;28;20057;-71
2021/11/12 01:23:33;;;;;;;54.13;23.08;;;;;;;-139.48;100.00;61774.03;4975405;28;20066;-71
2021/11/12 01:26:19;;;;;;;54.92;24.40;;;;;;;-139.48;100.00;61774.03;4961996;28;20439;-71
2021/11/12 01:29:04;;;;;;;62.85;23.30;;;;;;;-139.48;100.00;61774.03;4975009;28;20404;-71
2021/11/12 01:31:48;;;;;;;52.38;23.30;;;;;;;-139.48;100.00;61774.03;4975543;28;20054;-71
2021/11/12 01:34:32;;;;;;;57.33;21.85;;;;;;;-139.48;100.00;61774.03;4975050;28;20049;-71
2021/11/12 01:37:19;;;;;;;56.63;21.60;;;;;;;-139.48;100.00;61774.03;4975163;28;20050;-71
2021/11/12 01:40:08;;;;;;;60.30;22.17;;;;;;;-139.48;100.00;61774.03;4974757;28;20571;-71
2021/11/12 01:42:59;;;;;;;59.60;21.20;;;;;;;-139.48;100.00;61774.03;4961780;28;20057;-71
2021/11/12 01:45:53;;;;;;;51.25;21.95;;;;;;;-139.48;100.00;61774.03;4975682;28;20061;-71
2021/11/12 01:51:48;;;;;;;48.72;22.02;;;;;;;-139.48;100.00;61774.03;4975091;28;20400;-71
2021/11/12 02:00:15;;;;;;;41.33;18.52;;;;;;;-139.48;100.00;61774.03;4974697;28;20062;-71
2021/11/12 02:02:59;;;;;;;53.95;20.35;;;;;;;-139.48;100.00;61774.03;4974593;28;20157;-71
2021/11/12 02:05:43;;;;;;;54.08;19.48;;;;;;;-139.48;100.00;61774.03;4960935;28;20128;-71
2021/11/12 02:08:28;;;;;;;47.50;18.75;;;;;;;-139.48;100.00;61774.03;4960956;28;20097;-71
2021/11/12 02:11:12;;;;;;;42.97;18.20;;;;;;;-139.48;100.00;61774.03;4974369;28;20046;-71
2021/11/12 02:13:57;;;;;;;43.75;18.00;;;;;;;-139.48;100.00;61774.03;4974661;28;20082;-71
2021/11/12 02:16:46;;;;;;;45.42;18.75;;;;;;;-139.48;100.00;61774.03;4974586;28;20471;-71
2021/11/12 02:19:31;;;;;;;39.22;17.70;;;;;;;-139.48;100.00;61774.03;4974346;28;20046;-71
2021/11/12 02:22:16;;;;;;;40.67;19.23;;;;;;;-139.48;100.00;61774.03;4974415;28;20050;-71
2021/11/12 02:27:59;;;;;;;39.40;19.02;;;;;;;-139.48;100.00;61774.03;4975509;28;20041;-71
2021/11/12 02:30:48;;;;;;;39.22;18.05;;;;;;;-139.48;100.00;61774.03;4974197;28;20074;-71
2021/11/12 02:33:33;;;;;;;43.90;18.95;;;;;;;-139.48;100.00;61774.03;4973966;28;20109;-71
2021/11/12 02:36:18;;;;;;;39.05;17.52;;;;;;;-139.48;100.00;61774.03;4960688;28;20053;-71
2021/11/12 02:39:06;;;;;;;44.65;20.17;;;;;;;-139.48;100.00;61774.03;4960353;28;20057;-71
2021/11/12 02:41:51;;;;;;;39.50;20.02;;;;;;;-139.48;100.00;61774.03;4960452;28;20049;-71
2021/11/12 02:44:36;;;;;;;40.38;17.42;;;;;;;-139.48;100.00;61774.03;4973521;28;20054;-71
2021/11/12 02:47:20;;;;;;;40.90;18.77;;;;;;;-139.48;100.00;61774.03;4973765;28;20062;-71
2021/11/12 02:50:04;;;;;;;42.08;20.02;;;;;;;-139.48;100.00;61774.03;4959826;28;20054;-71
2021/11/12 02:52:55;;;;;;;45.88;19.55;;;;;;;-139.48;100.00;61774.03;4974881;28;20513;-71
2021/11/12 02:55:40;;;;;;;47.45;19.13;;;;;;;-139.48;100.00;61774.03;4973594;28;20050;-71
2021/11/12 02:58:24;;;;;;;41.88;18.73;;;;;;;-139.48;100.00;61774.03;4973469;28;20049;-71
2021/11/12 03:01:08;;;;;;;;;;;;;;;-139.48;100.00;61774.03;4974173;28;20049;-71
2021/11/12 03:03:53;;;;;;;40.38;17.38;;;;;;;-139.48;100.00;61774.03;4973939;28;20410;-71
2021/11/12 03:06:38;;;;;;;47.30;18.92;;;;;;;-139.48;100.00;61774.03;4959858;28;20049;-71
2021/11/12 03:09:29;;;;;;;42.75;17.48;;;;;;;-139.48;100.00;61774.03;4960293;28;20049;-71
2021/11/12 03:12:14;;;;;;;44.13;18.00;;;;;;;-139.48;100.00;61774.03;4973690;28;20053;-71
2021/11/12 03:14:57;;;;;;;;;;;;;;;-139.48;100.00;61774.03;4973932;28;20081;-71
2021/11/12 03:17:44;;;;;;;36.03;17.27;;;;;;;-139.48;100.00;61774.03;4973422;28;19988;-71
2021/11/12 03:20:29;;;;;;;40.45;17.42;;;;;;;-139.48;100.00;61774.03;4960096;28;20404;-71
2021/11/12 03:23:59;;;;;;;38.08;17.35;;;;;;;-139.48;100.00;61774.03;4973696;28;20100;-71
2021/11/12 04:02:39;;;;;;;40.53;17.60;;;;;;;-139.48;100.00;61774.03;4976964;28;20050;-71
2021/11/12 04:18:04;;;;;;;41.33;19.00;;;;;;;-139.48;100.00;61774.03;4976586;28;20427;-71
2021/11/12 05:10:21;;;;;;;42.35;19.90;;;;;;;-139.48;100.00;61774.03;4975790;28;20058;-71
2021/11/12 05:46:38;;;;;;;46.40;19.70;;;;;;;-139.48;100.00;61774.03;4975161;28;20041;-71
2021/11/12 05:55:30;;;;;;;45.40;19.10;;;;;;;-139.48;100.00;61774.03;4974777;28;20074;-71
2021/11/12 05:58:07;;;;;;;42.30;18.20;;;;;;;-139.48;100.00;61774.03;4975210;28;20493;-71
2021/11/12 06:00:51;;;;;;;53.58;20.10;;;;;;;-139.48;100.00;61774.03;4975033;28;20404;-70
2021/11/12 06:03:35;;;;;;;44.75;19.27;;;;;;;-139.48;100.00;61774.03;4960801;28;20138;-71
2021/11/12 06:06:19;;;;;;;51.13;20.33;;;;;;;-139.48;100.00;61774.03;4974483;28;20057;-71
2021/11/12 06:09:04;;;;;;;;;;;;;;;-139.48;100.00;61774.03;4961052;28;20069;-71
2021/11/12 06:11:51;;;;;;;53.05;19.75;;;;;;;-139.48;100.00;61774.03;4974562;28;20378;-71
2021/11/12 06:14:35;;;;;;;43.00;19.88;;;;;;;-139.48;100.00;61774.03;4974568;28;20118;-71
2021/11/12 06:17:19;;;;;;;43.53;19.95;;;;;;;-139.48;100.00;61774.03;5085752;23;20154;-66
2021/11/12 06:20:04;;;;;;;49.72;21.08;;;;;;;-139.48;100.00;61774.03;4974383;28;20049;-68
2021/11/12 06:22:48;;;;;;;51.70;21.83;;;;;;;-139.48;100.00;61774.03;4960579;28;20053;-68
2021/11/12 06:25:32;;;;;;;58.80;21.88;;;;;;;-139.48;100.00;61774.03;4975294;28;20143;-68
2021/11/12 06:28:16;;;;;;;50.45;21.15;;;;;;;-139.48;100.00;61774.03;4974209;28;20050;-69
2021/11/12 06:31:00;;;;;;;48.90;20.23;;;;;;;-139.48;100.00;61774.03;4974079;28;20057;-67
2021/11/12 06:33:44;;;;;;;57.50;23.35;;;;;;;-139.48;100.00;61774.03;4974109;28;20050;-68
2021/11/12 06:36:29;;;;;;;;;;;;;;;-139.48;100.00;61774.03;4974427;28;20138;-66
2021/11/12 06:39:14;;;;;;;44.45;19.73;;;;;;;-139.48;100.00;61774.03;4960346;28;20426;-68
2021/11/12 06:42:01;;;;;;;56.17;22.10;;;;;;;-139.48;100.00;61774.03;4974211;28;20054;-68
2021/11/12 06:51:07;;;;;;;49.50;21.55;;;;;;;-139.48;100.00;61774.03;4965923;28;20107;-69
2021/11/12 06:53:54;;;;;;;49.20;21.65;;;;;;;-139.48;100.00;61774.03;4960403;28;20087;-69
2021/11/12 06:56:38;;;;;;;46.65;22.08;;;;;;;-139.48;100.00;61774.03;4973864;28;20061;-69
2021/11/12 06:59:22;;;;;;;;;;;;;;;-139.48;100.00;61774.03;4974051;28;20416;-69
2021/11/12 07:02:09;;;;;;;52.70;21.60;;;;;;;-139.48;100.00;61774.03;4960249;28;19936;-68
2021/11/12 07:04:53;;;;;;;51.97;20.30;;;;;;;-139.48;100.00;61774.03;4974771;28;20082;-69
2021/11/12 07:07:37;;;;;;;51.25;20.45;;;;;;;-139.48;100.00;61774.03;4973523;28;20054;-69
2021/11/12 07:10:21;;;;;;;52.67;19.60;;;;;;;-139.48;100.00;61774.03;4960109;28;20070;-69
2021/11/12 07:13:05;;;;;;;51.53;20.65;;;;;;;-139.48;100.00;61774.03;4959997;28;20050;-69
2021/11/12 07:15:49;;;;;;;57.72;21.38;;;;;;;-139.48;100.00;61774.03;4974551;28;20050;-68
2021/11/12 07:18:33;;;;;;;47.95;20.42;;;;;;;-139.48;100.00;61774.03;4973256;28;20140;-69
2021/11/12 07:21:17;;;;;;;;;;;;;;;-139.48;100.00;61774.03;4974029;28;20053;-69
2021/11/12 07:24:01;;;;;;;54.30;20.30;;;;;;;-139.48;100.00;61774.03;4973307;28;19950;-69
2021/11/12 07:26:45;;;;;;;50.38;22.35;;;;;;;-139.48;100.00;61774.03;4973538;28;20097;-69
2021/11/12 07:29:31;;;;;;;39.35;18.90;;;;;;;-139.48;100.00;61774.03;4961904;28;20062;-70
2021/11/12 07:32:16;;;;;;;41.53;19.52;;;;;;;-139.48;100.00;61774.03;4977435;28;20100;-69
2021/11/12 07:35:01;;;;;;;45.28;18.05;;;;;;;-139.48;100.00;61774.03;4977465;28;20123;-69
2021/11/12 07:37:44;;;;;;;43.38;20.05;;;;;;;-139.48;100.00;61774.03;4977012;28;20167;-69
2021/11/12 07:46:45;;;;;;;42.20;18.73;;;;;;;-139.48;100.00;61774.03;4977224;28;20049;-69
2021/11/12 07:49:29;;;;;;;42.50;18.73;;;;;;;-139.48;100.00;61774.03;4977136;28;20097;-69
2021/11/12 07:52:16;;;;;;;36.95;18.38;;;;;;;-139.48;100.00;61774.03;4977997;28;20419;-69
2021/11/12 07:55:00;;;;;;;33.20;16.88;;;;;;;-139.48;100.00;61774.03;4963382;28;20050;-69
2021/11/12 07:57:44;;;;;;;40.35;17.60;;;;;;;-139.48;100.00;61774.03;4977586;28;20082;-69
2021/11/12 08:00:28;;;;;;;37.58;17.58;;;;;;;-139.48;100.00;61774.03;4963329;28;20105;-69
2021/11/12 08:03:12;;;;;;;44.33;17.70;;;;;;;-139.48;100.00;61774.03;4976785;28;20046;-68
2021/11/12 08:05:57;;;;;;;43.58;17.55;;;;;;;-139.48;100.00;61774.03;4976727;28;20101;-69
2021/11/12 08:08:47;;;;;;;37.53;17.70;;;;;;;-139.48;100.00;61774.03;4976518;28;20093;-69
2021/11/12 08:11:37;;;;;;;34.30;17.45;;;;;;;-139.48;100.00;61774.03;4976331;28;20114;-69
2021/11/12 08:17:44;;;;;;;37.95;17.08;;;;;;;-139.48;100.00;61774.03;4970298;28;20519;-69
2021/11/12 08:20:39;;;;;;;38.80;18.20;;;;;;;-139.48;100.00;61774.03;4976562;28;20048;-70
2021/11/12 08:23:30;;;;;;;37.70;17.70;;;;;;;-139.48;100.00;61774.03;4977203;28;20166;-69
2021/11/12 08:26:25;;;;;;;39.28;18.05;;;;;;;-139.48;100.00;61774.03;4977225;28;20566;-69
2021/11/12 08:29:56;;;;;;;37.42;18.67;;;;;;;-139.48;100.00;61774.03;4977058;28;20566;-69
2021/11/12 08:35:10;;;;;;;39.13;17.88;;;;;;;-139.48;100.00;61774.03;4977499;28;20515;-69
2021/11/12 08:43:53;;;;;;;41.00;19.25;;;;;;;-139.48;100.00;61774.03;4977269;28;20129;-69
2021/11/12 08:46:55;;;;;;;45.05;21.52;;;;;;;-139.48;100.00;61774.03;4975745;28;20049;-69
2021/11/12 08:49:41;;;;;;;31.10;15.95;;;;;;;-139.48;100.00;61774.03;4976269;28;20150;-69
2021/11/12 08:52:25;;;;;;;37.13;17.63;;;;;;;-139.48;100.00;61774.03;4976199;28;20069;-69
2021/11/12 08:55:09;;;;;;;37.03;18.02;;;;;;;-139.48;100.00;61774.03;4975907;28;20093;-69
2021/11/12 08:57:54;;;;;;;43.13;18.42;;;;;;;-139.48;100.00;61774.03;4976169;28;20130;-69
2021/11/12 09:00:40;;;;;;;35.72;18.27;;;;;;;-139.48;100.00;61774.03;4975838;28;20134;-69
2021/11/12 09:03:24;;;;;;;46.53;19.58;;;;;;;-139.48;100.00;61774.03;4961982;28;20523;-69
2021/11/12 09:06:08;;;;;;;40.33;18.88;;;;;;;-139.48;100.00;61774.03;4977030;28;20138;-69
2021/11/12 09:08:52;;;;;;;42.67;18.20;;;;;;;-139.48;100.00;61774.03;4975703;28;20101;-69
2021/11/12 09:11:38;;;;;;;36.28;17.73;;;;;;;-139.48;100.00;61774.03;4975485;28;20050;-69
2021/11/12 09:14:25;;;;;;;37.78;18.52;;;;;;;-139.48;100.00;61774.03;4975652;28;20508;-69
2021/11/12 09:17:09;;;;;;;33.03;16.63;;;;;;;-139.48;100.00;61774.03;4961943;28;20522;-69
2021/11/12 09:19:57;;;;;;;34.08;16.23;;;;;;;-139.48;100.00;61774.03;4975556;28;20506;-69
2021/11/12 09:22:41;;;;;;;32.13;16.58;;;;;;;-139.48;100.00;61774.03;4975663;28;20535;-69
2021/11/12 09:25:26;;;;;;;35.17;17.58;;;;;;;-139.48;100.00;61774.03;4975500;28;20053;-69
2021/11/12 09:28:12;;;;;;;39.22;15.98;;;;;;;-139.48;100.00;61774.03;4961460;28;20440;-69
2021/11/12 09:30:56;;;;;;;37.17;16.90;;;;;;;-139.48;100.00;61774.03;4975391;28;20072;-69
2021/11/12 09:33:40;;;;;;;34.40;16.20;;;;;;;-139.48;100.00;61774.03;4976479;28;20053;-69
2021/11/12 09:36:24;;;;;;;44.90;16.77;;;;;;;-139.48;100.00;61774.03;4975125;28;20054;-69
2021/11/12 09:39:09;;;;;;;36.88;17.27;;;;;;;-139.48;100.00;61774.03;4974864;28;20054;-69
2021/11/12 09:41:53;;;;;;;31.02;16.67;;;;;;;-139.48;100.00;61774.03;4974819;28;20054;-69
2021/11/12 09:44:37;;;;;;;38.13;17.00;;;;;;;-139.48;100.00;61774.03;4975856;28;20053;-68
2021/11/12 09:47:25;;;;;;;41.28;17.70;;;;;;;-139.48;100.00;61774.03;4975820;28;20089;-69
2021/11/12 09:50:12;;;;;;;38.25;18.58;;;;;;;-139.48;100.00;61774.03;4975056;28;20427;-69
2021/11/12 09:52:57;;;;;;;39.53;19.33;;;;;;;-139.48;100.00;61774.03;4974482;28;20479;-69
2021/11/12 09:55:43;;;;;;;36.78;18.55;;;;;;;-139.48;100.00;61774.03;4961409;28;20057;-69
2021/11/12 09:58:27;;;;;;;35.50;17.77;;;;;;;-139.48;100.00;61774.03;4974765;28;20571;-69
2021/11/12 10:01:11;;;;;;;41.38;19.50;;;;;;;-139.48;100.00;61774.03;4960948;28;20050;-69
2021/11/12 10:04:00;;;;;;;40.85;20.23;;;;;;;-139.48;100.00;61774.03;4974583;28;20097;-69
2021/11/12 10:06:45;;;;;;;41.58;18.73;;;;;;;-139.48;100.00;61774.03;4961337;28;20056;-69
2021/11/12 10:09:29;;;;;;;40.50;19.35;;;;;;;-139.48;100.00;61774.03;4960741;28;20085;-69
2021/11/12 10:12:13;;;;;;;38.55;18.90;;;;;;;-139.48;100.00;61774.03;4960627;28;20049;-69
2021/11/12 10:15:07;;;;;;;45.90;20.02;;;;;;;-139.48;100.00;61774.03;4974787;28;20138;-69
2021/11/12 10:17:51;;;;;;;;;;;;;;;-139.48;100.00;61774.03;4974473;28;20530;-69
2021/11/12 10:20:35;;;;;;;44.33;19.58;;;;;;;-139.48;100.00;61774.03;4960791;28;20339;-69
2021/11/12 10:23:19;;;;;;;38.53;19.10;;;;;;;-139.48;100.00;61774.03;4975271;28;20049;-69
2021/11/12 10:26:05;;;;;;;58.60;24.60;;;;;;;-139.48;100.00;61774.03;4974203;28;20058;-69
2021/11/12 10:28:49;;;;;;;37.30;20.05;;;;;;;-139.48;100.00;61774.03;4975430;28;20404;-68
2021/11/12 10:31:45;;;;;;;44.22;21.55;;;;;;;-139.48;100.00;61774.03;4974170;28;20455;-69
2021/11/12 10:34:32;;;;;;;36.72;18.98;;;;;;;-139.48;100.00;61774.03;4960216;28;20097;-69
2021/11/12 10:37:25;;;;;;;33.65;18.27;;;;;;;-139.48;100.00;61774.03;4973872;28;20473;-69
2021/11/12 10:40:16;;;;;;;35.40;18.33;;;;;;;-139.48;100.00;61774.03;4973779;28;20050;-69
2021/11/12 10:43:00;;;;;;;34.38;18.08;;;;;;;-139.48;100.00;61774.03;4960172;28;20522;-69
2021/11/12 10:45:43;;;;;;;29.92;16.52;;;;;;;-139.48;100.00;61774.03;4960333;28;20066;-68
2021/11/12 10:48:28;;;;;;;35.83;17.77;;;;;;;-139.48;100.00;61774.03;4973741;28;20104;-69
2021/11/12 10:51:20;;;;;;;31.45;17.10;;;;;;;-139.48;100.00;61774.03;4973835;28;20069;-69
2021/11/12 10:54:04;;;;;;;33.40;16.92;;;;;;;-139.48;100.00;61774.03;4960340;28;20069;-68
2021/11/12 10:56:49;;;;;;;38.30;18.98;;;;;;;-139.48;100.00;61774.03;4960106;28;20088;-69
2021/11/12 10:59:36;;;;;;;33.60;17.38;;;;;;;-139.48;100.00;61774.03;4973541;28;20081;-69
2021/11/12 11:02:24;;;;;;;36.95;18.48;;;;;;;-139.48;100.00;61774.03;4973791;28;20112;-69
2021/11/12 11:05:17;;;;;;;32.38;17.02;;;;;;;-139.48;100.00;61774.03;4973094;28;20102;-67
2021/11/12 11:08:07;;;;;;;31.90;16.60;;;;;;;-139.48;100.00;61774.03;4973537;28;20440;-69
2021/11/12 11:10:52;;;;;;;31.15;16.00;;;;;;;-139.48;100.00;61774.03;4960329;28;20166;-69
2021/11/12 11:13:40;;;;;;;24.67;14.88;;;;;;;-139.48;100.00;61774.03;4973776;28;20041;-69
2021/11/12 11:16:29;;;;;;;27.73;14.05;;;;;;;-139.48;100.00;61774.03;4973411;28;20166;-69
2021/11/12 11:19:36;;;;;;;26.20;13.93;;;;;;;-139.48;100.00;61774.03;4974710;28;20075;-69
2021/11/12 11:22:20;;;;;;;24.08;13.40;;;;;;;-139.48;100.00;61774.03;4974399;28;20115;-69
2021/11/12 11:25:06;;;;;;;22.55;13.55;;;;;;;-139.48;100.00;61774.03;4973634;28;20097;-69
2021/11/12 11:27:53;;;;;;;24.23;13.13;;;;;;;-139.48;100.00;61774.03;4973243;28;20053;-69
2021/11/12 11:30:36;;;;;;;27.08;13.45;;;;;;;-139.48;100.00;61774.03;4974512;28;20113;-69
2021/11/12 11:33:22;;;;;;;26.02;14.43;;;;;;;-139.48;100.00;61774.03;4960363;28;20065;-69
2021/11/12 11:36:07;;;;;;;30.42;16.00;;;;;;;-139.48;100.00;61774.03;4959880;28;20138;-69
2021/11/12 11:38:53;;;;;;;31.13;18.25;;;;;;;-139.48;100.00;61774.03;4974615;28;20050;-69
2021/11/12 11:41:37;;;;;;;22.45;12.52;;;;;;;-139.48;100.00;61774.03;4959934;28;20138;-69
2021/11/12 11:44:22;;;;;;;25.00;13.35;;;;;;;-139.48;100.00;61774.03;4959559;28;20053;-69
2021/11/12 11:47:06;;;;;;;23.52;12.15;;;;;;;-139.48;100.00;61774.03;4959982;28;20635;-69
2021/11/12 11:49:53;;;;;;;20.55;12.00;;;;;;;-139.48;100.00;61774.03;4973141;28;20129;-69
2021/11/12 11:52:37;;;;;;;21.67;13.20;;;;;;;-139.48;100.00;61774.03;4974171;28;20101;-69
2021/11/12 11:55:36;;;;;;;20.60;12.40;;;;;;;-139.48;100.00;61774.03;4973355;28;20050;-69
2021/11/12 11:58:29;;;;;;;20.02;12.05;;;;;;;-139.48;100.00;61774.03;4973011;28;20122;-69
2021/11/12 12:01:16;;;;;;;19.90;11.95;;;;;;;-139.48;100.00;61774.03;4974069;28;20054;-69
2021/11/12 12:04:10;;;;;;;24.63;13.38;;;;;;;-139.48;100.00;61774.03;4973726;28;20173;-69
2021/11/12 12:07:00;;;;;;;24.15;13.05;;;;;;;-139.48;100.00;61774.03;4973764;28;20049;-69
2021/11/12 12:09:53;;;;;;;25.33;13.82;;;;;;;-139.48;100.00;61774.03;4973923;28;20046;-69
2021/11/12 12:12:43;;;;;;;23.88;13.60;;;;;;;-139.48;100.00;61774.03;4972883;28;20053;-69
2021/11/12 12:15:29;;;;;;;26.92;14.32;;;;;;;-139.48;100.00;61774.03;4972841;28;20482;-69
2021/11/12 12:18:16;;;;;;;23.73;13.77;;;;;;;-139.48;100.00;61774.03;4977424;28;20065;-68
2021/11/12 12:21:47;;;;;;;23.63;12.80;;;;;;;-139.48;100.00;61774.03;4976527;28;20138;-69
2021/11/12 13:21:46;;;;;;;34.17;19.30;;;;;;;-139.48;100.00;61774.03;4946515;29;20051;-69
2021/11/12 13:24:37;;;;;;;37.30;19.42;;;;;;;-139.48;100.00;61774.03;4944376;29;20050;-70
2021/11/12 13:27:28;;;;;;;41.03;19.70;;;;;;;-139.48;100.00;61774.03;4961931;28;20137;-69
2021/11/12 13:30:26;;;;;;;35.13;19.05;;;;;;;-139.48;100.00;61774.03;4975264;28;20046;-69
2021/11/12 13:33:41;;;;;;;36.90;19.58;;;;;;;-139.48;100.00;61774.03;4975182;28;20041;-69
2021/11/12 13:36:31;;;;;;;39.00;18.48;;;;;;;-139.48;100.00;61774.03;4974794;28;20081;-69
2021/11/12 13:39:19;;;;;;;41.08;21.08;;;;;;;-139.48;100.00;61774.03;4974962;28;20571;-69
2021/11/12 13:42:04;;;;;;;46.20;22.52;;;;;;;-139.48;100.00;61774.03;4961709;28;20066;-69
2021/11/12 13:44:48;;;;;;;38.75;19.67;;;;;;;-139.48;100.00;61774.03;4960868;28;20053;-69
2021/11/12 13:47:32;;;;;;;40.38;21.20;;;;;;;-139.48;100.00;61774.03;4974716;28;20515;-69
2021/11/12 13:50:16;;;;;;;40.85;21.42;;;;;;;-139.48;100.00;61774.03;4974862;28;20109;-69
2021/11/12 13:53:02;;;;;;;42.70;20.67;;;;;;;-139.48;100.00;61774.03;4974777;28;20054;-69
2021/11/12 13:55:46;;;;;;;43.17;19.63;;;;;;;-139.48;100.00;61774.03;4974397;28;20049;-70
2021/11/12 13:58:30;;;;;;;42.17;21.55;;;;;;;-139.48;100.00;61774.03;4974726;28;20128;-69
2021/11/12 14:01:21;;;;;;;;;;;;;;;-139.48;100.00;61774.03;4961275;28;20086;-69
2021/11/12 14:04:26;;;;;;;47.47;22.25;;;;;;;-139.48;100.00;61774.03;4960671;28;19944;-69
2021/11/12 14:07:19;;;;;;;50.83;23.38;;;;;;;-139.48;100.00;61774.03;4974455;28;20098;-69
2021/11/12 14:10:05;;;;;;;53.25;23.38;;;;;;;-139.48;100.00;61774.03;4974636;28;20130;-69
2021/11/12 14:12:57;;;;;;;47.40;23.10;;;;;;;-139.48;100.00;61774.03;4975710;28;20054;-68
2021/11/12 14:16:00;;;;;;;44.78;21.98;;;;;;;-139.48;100.00;61774.03;4960863;28;20507;-70
2021/11/12 14:22:00;;;;;;;46.92;23.10;;;;;;;-139.48;100.00;61774.03;4974209;28;20045;-69
2021/11/12 14:27:43;;;;;;;52.00;22.98;;;;;;;-139.48;100.00;61774.03;4975376;28;20128;-69
2021/11/12 14:36:30;;;;;;;49.30;21.63;;;;;;;-139.48;100.00;61774.03;4974245;28;20089;-69
2021/11/12 14:45:21;;;;;;;47.27;19.13;;;;;;;-139.48;100.00;61774.03;4974124;28;20121;-69
2021/11/12 14:51:10;;;;;;;54.65;24.08;;;;;;;-139.48;100.00;61774.03;4973967;28;20093;-69
2021/11/12 14:54:03;;;;;;;54.97;25.15;;;;;;;-139.48;100.00;61774.03;4973865;28;20045;-69
2021/11/12 14:56:50;;;;;;;47.08;22.27;;;;;;;-139.48;100.00;61774.03;4960282;28;20094;-70
2021/11/12 14:59:39;;;;;;;54.75;24.45;;;;;;;-139.48;100.00;61774.03;4973506;28;20049;-69
2021/11/12 15:02:23;;;;;;;53.65;23.30;;;;;;;-139.48;100.00;61774.03;4973691;28;20507;-69
2021/11/12 15:05:13;;;;;;;57.13;23.48;;;;;;;-139.48;100.00;61774.03;4973627;28;20046;-69
2021/11/12 15:08:22;;;;;;;46.67;21.88;;;;;;;-139.48;100.00;61774.03;4973355;28;20045;-69
2021/11/12 15:11:08;;;;;;;56.47;24.95;;;;;;;-139.48;100.00;61774.03;4973900;28;20089;-69
2021/11/12 15:13:55;;;;;;;51.25;23.50;;;;;;;-139.48;100.00;61774.03;4973703;28;20096;-69
2021/11/12 15:16:40;;;;;;;46.67;22.58;;;;;;;-139.48;100.00;61774.03;4973207;28;20082;-69
2021/11/12 15:19:25;;;;;;;51.70;23.98;;;;;;;-139.48;100.00;61774.03;4974491;28;20049;-69
2021/11/12 15:25:39;;;;;;;52.60;23.35;;;;;;;-139.48;100.00;61774.03;4948400;28;20514;-69
2021/11/12 15:28:49;;;;;;;49.08;22.98;;;;;;;-139.48;100.00;61774.03;4973627;28;20090;-69
2021/11/12 15:31:37;;;;;;;51.42;23.33;;;;;;;-139.48;100.00;61774.03;4973602;28;20531;-69
2021/11/12 15:34:22;;;;;;;48.40;21.27;;;;;;;-139.48;100.00;61774.03;4973200;28;20101;-69
2021/11/12 15:37:44;;;;;;;47.40;21.77;;;;;;;-139.48;100.00;61774.03;4959679;28;20570;-69
2021/11/12 15:40:26;;;;;;;46.17;22.05;;;;;;;-139.48;100.00;61774.03;4973566;28;20062;-69
2021/11/12 15:43:17;;;;;;;49.70;21.88;;;;;;;-139.48;100.00;61774.03;4973190;28;20046;-69
2021/11/12 15:46:09;;;;;;;44.35;21.23;;;;;;;-139.48;100.00;61774.03;4974165;28;20053;-69
2021/11/12 15:48:54;;;;;;;45.80;20.98;;;;;;;-139.48;100.00;61774.03;4973346;28;20440;-69
2021/11/12 15:51:42;;;;;;;48.75;21.00;;;;;;;-139.48;100.00;61774.03;4976366;28;20142;-69
2021/11/12 16:00:16;;;;;;;51.72;23.55;;;;;;;-139.48;100.00;61774.03;4977240;28;20552;-70
2021/11/12 16:09:20;;;;;;;52.63;22.45;;;;;;;-139.48;100.00;61774.03;4976903;28;20471;-69
2021/11/12 16:14:59;;;;;;;44.53;21.13;;;;;;;-139.48;100.00;61774.03;4976642;28;20150;-69
2021/11/12 16:23:53;;;;;;;47.88;21.23;;;;;;;-139.48;100.00;61774.03;4976890;28;20053;-69
2021/11/12 16:26:40;;;;;;;46.83;21.00;;;;;;;-139.48;100.00;61774.03;4976542;28;20057;-70
2021/11/12 16:32:17;;;;;;;55.53;21.20;;;;;;;-139.48;100.00;61774.03;4976621;28;20503;-70
2021/11/12 16:35:02;;;;;;;51.17;21.50;;;;;;;-139.48;100.00;61774.03;4963382;28;20130;-69
2021/11/12 16:37:50;;;;;;;48.00;20.48;;;;;;;-139.48;100.00;61774.03;4977042;28;20121;-69
2021/11/12 16:40:38;;;;;;;45.75;19.73;;;;;;;-139.48;100.00;61774.03;4976922;28;20111;-69
2021/11/12 16:43:31;;;;;;;43.47;19.38;;;;;;;-139.48;100.00;61774.03;4977100;28;20102;-69
2021/11/12 16:46:24;;;;;;;36.95;15.68;;;;;;;-139.48;100.00;61774.03;4976305;28;20053;-69
2021/11/12 17:06:17;;;;;;;45.22;20.17;;;;;;;-139.48;100.00;61774.03;4976809;28;20045;-68
2021/11/12 17:12:17;;;;;;;40.85;18.10;;;;;;;-139.48;100.00;61774.03;4975953;28;20142;-69
2021/11/12 17:15:28;;;;;;;37.83;17.17;;;;;;;-139.48;100.00;61774.03;4964784;28;20093;-69
2021/11/12 17:18:42;;;;;;;38.70;18.98;;;;;;;-139.48;100.00;61774.03;4975548;28;20519;-69
2021/11/12 17:48:21;;;;;;;;;;;;;;;-139.48;100.00;61774.03;4974705;28;20117;-69
2021/11/12 17:51:15;;;;;;;46.97;19.35;;;;;;;-139.48;100.00;61774.03;4974634;28;20422;-69
2021/11/12 18:03:23;;;;;;;41.55;17.70;;;;;;;-139.48;100.00;61774.03;4974779;28;20415;-69
2021/11/12 18:06:25;;;;;;;46.63;19.23;;;;;;;-139.48;100.00;61774.03;4974887;28;20046;-69
2021/11/12 18:21:45;;;;;;;38.38;17.92;;;;;;;-139.48;100.00;61774.03;4973884;28;20073;-69
2021/11/12 21:44:37;;;;;;;54.65;21.75;;;;;;;-139.48;100.00;61774.03;4974313;28;20053;-68
2021/11/12 21:47:21;;;;;;;;;;;;;;;-139.48;100.00;61774.03;4965077;28;20049;-68
2021/11/12 21:50:05;;;;;;;53.47;22.27;;;;;;;-139.48;100.00;61774.03;4974422;28;20016;-67
2021/11/12 21:52:49;;;;;;;79.35;25.80;;;;;;;-139.48;100.00;61774.03;4975298;28;20117;-68
2021/11/12 21:55:34;;;;;;;56.53;21.95;;;;;;;-139.48;100.00;61774.03;4960655;28;20093;-68
2021/11/12 21:58:18;;;;;;;59.45;21.48;;;;;;;-139.48;100.00;61774.03;4974117;28;20508;-68